createdAt,value
2018-03-25T00:00:03.346Z,20.33
2018-03-25T00:02:30.866Z,21.33
2018-03-25T00:04:58.752Z,19.87
2018-03-25T00:07:26.254Z,17.62
2018-03-25T00:09:53.752Z,18.70
2018-03-25T00:12:21.651Z,19.08
2018-03-25T00:14:49.143Z,19.50
2018-03-25T00:17:17.419Z,20.27
2018-03-25T00:19:45.768Z,18.92
2018-03-25T00:22:13.271Z,19.48
2018-03-25T00:24:41.177Z,19.00
2018-03-25T00:27:08.681Z,16.92
2018-03-25T00:29:36.622Z,19.23
2018-03-25T00:32:04.175Z,17.90
2018-03-25T00:34:31.700Z,18.00
2018-03-25T00:36:59.207Z,19.90
2018-03-25T00:39:26.711Z,19.02
2018-03-25T00:41:54.622Z,17.37
2018-03-25T00:44:22.127Z,17.48
2018-03-25T00:46:49.627Z,18.55
2018-03-25T00:49:17.146Z,17.90
2018-03-25T00:51:45.062Z,19.45
2018-03-25T00:54:12.550Z,19.67
2018-03-25T00:56:40.039Z,19.30
2018-03-25T00:59:07.554Z,20.00
2018-03-25T01:01:35.039Z,19.10
2018-03-25T01:04:02.944Z,18.08
2018-03-25T01:06:30.446Z,19.23
2018-03-25T01:08:57.936Z,18.08
2018-03-25T01:11:25.433Z,18.98
2018-03-25T01:13:52.930Z,18.83
2018-03-25T01:16:20.825Z,18.62
2018-03-25T01:18:48.343Z,18.70
2018-03-25T01:21:15.834Z,19.12
2018-03-25T01:23:43.337Z,18.95
2018-03-25T01:26:10.840Z,20.15
2018-03-25T01:28:38.355Z,18.85
2018-03-25T01:31:05.898Z,18.55
2018-03-25T01:33:33.392Z,18.98
2018-03-25T01:36:00.900Z,18.98
2018-03-25T01:38:28.407Z,17.92
2018-03-25T01:40:55.895Z,17.85
2018-03-25T01:43:23.386Z,18.45
2018-03-25T01:45:50.912Z,17.73
2018-03-25T01:48:18.668Z,19.02
2018-03-25T01:50:46.155Z,18.60
2018-03-25T01:53:13.655Z,18.33
2018-03-25T01:55:41.155Z,21.60
2018-03-25T01:58:08.665Z,19.48
2018-03-25T02:00:36.163Z,19.58
2018-03-25T02:03:03.661Z,18.85
2018-03-25T02:05:31.174Z,21.35
2018-03-25T02:07:58.662Z,20.70
2018-03-25T02:10:26.158Z,21.15
2018-03-25T02:12:53.656Z,19.90
2018-03-25T02:15:21.147Z,20.35
2018-03-25T02:17:48.646Z,19.62
2018-03-25T02:20:16.541Z,20.85
2018-03-25T02:22:44.041Z,19.92
2018-03-25T02:25:11.571Z,20.12
2018-03-25T02:27:39.058Z,20.75
2018-03-25T02:30:06.565Z,20.73
2018-03-25T02:32:34.081Z,19.80
2018-03-25T02:35:01.992Z,21.40
2018-03-25T02:37:29.516Z,20.33
2018-03-25T02:39:57.399Z,18.87
2018-03-25T02:42:24.891Z,20.25
2018-03-25T02:44:52.404Z,20.88
2018-03-25T02:47:20.302Z,20.27
2018-03-25T02:49:47.802Z,18.87
2018-03-25T02:52:15.319Z,22.23
2018-03-25T02:54:42.812Z,21.77
2018-03-25T02:57:10.368Z,20.65
2018-03-25T02:59:37.999Z,21.08
2018-03-25T03:02:05.549Z,23.58
2018-03-25T03:04:33.111Z,21.52
2018-03-25T03:07:00.594Z,23.35
2018-03-25T03:09:28.167Z,21.77
2018-03-25T03:11:56.118Z,22.08
2018-03-25T03:14:23.616Z,21.85
2018-03-25T03:16:51.519Z,23.65
2018-03-25T03:19:19.193Z,24.60
2018-03-25T03:21:46.691Z,24.08
2018-03-25T03:24:14.266Z,23.90
2018-03-25T03:26:41.857Z,23.12
2018-03-25T03:29:09.360Z,24.25
2018-03-25T03:31:36.851Z,22.02
2018-03-25T03:34:05.244Z,23.62
2018-03-25T03:36:32.843Z,22.55
2018-03-25T03:39:00.421Z,22.13
2018-03-25T03:41:27.932Z,23.12
2018-03-25T03:43:55.440Z,22.83
2018-03-25T03:46:23.371Z,22.62
2018-03-25T03:48:50.865Z,23.83
2018-03-25T03:51:18.759Z,22.73
2018-03-25T03:53:46.255Z,20.80
2018-03-25T03:56:13.748Z,21.83
2018-03-25T03:58:41.833Z,22.35
2018-03-25T04:01:09.361Z,21.30
2018-03-25T04:03:37.317Z,19.60
2018-03-25T04:06:05.331Z,23.10
2018-03-25T04:08:32.833Z,23.08
2018-03-25T04:11:00.422Z,24.87
2018-03-25T04:13:27.927Z,25.23
2018-03-25T04:15:55.527Z,24.02
2018-03-25T04:18:23.060Z,25.88
2018-03-25T04:20:50.766Z,25.25
2018-03-25T04:23:18.710Z,22.13
2018-03-25T04:25:46.278Z,23.33
2018-03-25T04:28:14.189Z,20.12
2018-03-25T04:30:41.759Z,24.10
2018-03-25T04:33:09.314Z,23.52
2018-03-25T04:35:36.870Z,24.15
2018-03-25T04:38:04.435Z,23.23
2018-03-25T04:40:31.994Z,22.48
2018-03-25T04:42:59.525Z,22.05
2018-03-25T04:45:27.023Z,21.20
2018-03-25T04:47:54.721Z,21.40
2018-03-25T04:50:22.314Z,23.98
2018-03-25T04:52:49.890Z,25.52
2018-03-25T04:55:17.609Z,26.12
2018-03-25T04:57:45.629Z,24.85
2018-03-25T05:00:13.174Z,20.48
2018-03-25T05:02:40.665Z,20.48
2018-03-25T05:05:08.213Z,22.10
2018-03-25T05:07:35.787Z,23.08
2018-03-25T05:10:03.353Z,22.87
2018-03-25T05:12:30.887Z,23.05
2018-03-25T05:14:58.370Z,23.85
2018-03-25T05:17:25.878Z,25.50
2018-03-25T05:19:53.471Z,23.70
2018-03-25T05:22:20.983Z,24.37
2018-03-25T05:24:48.486Z,22.42
2018-03-25T05:27:16.014Z,23.30
2018-03-25T05:29:44.343Z,23.42
2018-03-25T05:32:11.878Z,23.55
2018-03-25T05:34:39.400Z,23.50
2018-03-25T05:37:06.915Z,23.45
2018-03-25T05:39:34.436Z,26.20
2018-03-25T05:42:01.936Z,22.25
2018-03-25T05:44:29.838Z,24.83
2018-03-25T05:46:57.345Z,24.77
2018-03-25T05:49:24.835Z,22.58
2018-03-25T05:51:52.718Z,24.40
2018-03-25T05:54:20.218Z,25.33
2018-03-25T05:56:47.724Z,23.35
2018-03-25T05:59:15.248Z,23.10
2018-03-25T06:01:42.751Z,22.90
2018-03-25T06:04:10.245Z,22.45
2018-03-25T06:06:37.744Z,21.83
2018-03-25T06:09:05.627Z,22.40
2018-03-25T06:11:33.128Z,22.15
2018-03-25T06:14:00.636Z,24.55
2018-03-25T06:16:28.121Z,22.37
2018-03-25T06:18:55.611Z,24.23
2018-03-25T06:21:23.106Z,24.65
2018-03-25T06:23:50.607Z,21.80
2018-03-25T06:26:18.123Z,24.17
2018-03-25T06:28:45.620Z,22.75
2018-03-25T06:31:13.138Z,23.55
2018-03-25T06:33:40.631Z,26.25
2018-03-25T06:36:08.135Z,23.17
2018-03-25T06:38:36.039Z,27.15
2018-03-25T06:41:03.548Z,27.23
2018-03-25T06:43:31.443Z,26.55
2018-03-25T06:45:59.003Z,26.73
2018-03-25T06:48:26.511Z,26.70
2018-03-25T06:50:54.003Z,27.60
2018-03-25T06:53:21.500Z,27.77
2018-03-25T06:55:48.996Z,27.70
2018-03-25T06:58:16.903Z,27.08
2018-03-25T07:00:44.402Z,29.12
2018-03-25T07:03:11.893Z,29.08
2018-03-25T07:05:39.792Z,30.00
2018-03-25T07:08:07.295Z,28.02
2018-03-25T07:10:34.797Z,30.17
2018-03-25T07:13:02.297Z,28.00
2018-03-25T07:15:29.810Z,30.25
2018-03-25T07:17:57.294Z,29.95
2018-03-25T07:20:24.798Z,27.30
2018-03-25T07:22:52.705Z,27.85
2018-03-25T07:25:20.209Z,25.40
2018-03-25T07:27:48.118Z,24.48
2018-03-25T07:30:15.622Z,25.33
2018-03-25T07:32:43.559Z,27.62
2018-03-25T07:35:11.060Z,28.55
2018-03-25T07:37:38.572Z,28.52
2018-03-25T07:40:06.082Z,26.65
2018-03-25T07:42:34.047Z,28.60
2018-03-25T07:45:01.964Z,27.42
2018-03-25T07:47:29.480Z,29.17
2018-03-25T07:49:57.067Z,26.75
2018-03-25T07:52:24.567Z,28.25
2018-03-25T07:54:52.075Z,26.12
2018-03-25T07:57:19.579Z,27.35
2018-03-25T07:59:47.091Z,26.50
2018-03-25T08:02:14.603Z,28.38
2018-03-25T08:04:42.103Z,27.75
2018-03-25T08:07:09.611Z,29.98
2018-03-25T08:09:37.121Z,25.83
2018-03-25T08:12:04.645Z,29.33
2018-03-25T08:14:32.540Z,30.35
2018-03-25T08:17:00.048Z,29.90
2018-03-25T08:19:27.533Z,30.07
2018-03-25T08:21:55.045Z,28.40
2018-03-25T08:24:22.562Z,27.07
2018-03-25T08:26:50.103Z,29.27
2018-03-25T08:29:18.005Z,29.80
2018-03-25T08:31:45.495Z,30.37
2018-03-25T08:34:13.008Z,28.10
2018-03-25T08:36:40.563Z,29.30
2018-03-25T08:39:08.068Z,29.47
2018-03-25T08:41:35.584Z,30.10
2018-03-25T08:44:03.093Z,30.27
2018-03-25T08:46:30.639Z,30.60
2018-03-25T08:48:58.088Z,29.70
2018-03-25T08:51:25.567Z,28.97
2018-03-25T08:53:53.079Z,30.23
2018-03-25T08:56:20.583Z,28.53
2018-03-25T08:58:48.091Z,26.43
2018-03-25T09:01:15.598Z,25.03
2018-03-25T09:03:43.104Z,23.80
2018-03-25T09:06:10.596Z,24.70
2018-03-25T09:08:38.091Z,23.80
2018-03-25T09:11:06.000Z,27.93
2018-03-25T09:13:33.541Z,25.07
2018-03-25T09:16:01.033Z,24.87
2018-03-25T09:18:28.532Z,27.60
2018-03-25T09:20:56.449Z,26.53
2018-03-25T09:23:23.947Z,25.50
2018-03-25T09:25:51.835Z,26.37
2018-03-25T09:28:19.335Z,22.80
2018-03-25T09:30:46.851Z,27.23
2018-03-25T09:33:14.347Z,27.77
2018-03-25T09:35:41.840Z,27.53
2018-03-25T09:38:09.339Z,27.33
2018-03-25T09:40:36.832Z,27.10
2018-03-25T09:43:04.373Z,28.43
2018-03-25T09:45:31.855Z,27.23
2018-03-25T09:47:59.340Z,18.80
2018-03-25T09:50:26.855Z,28.23
2018-03-25T09:52:54.364Z,27.87
2018-03-25T09:55:21.857Z,27.67
2018-03-25T09:57:49.382Z,26.03
2018-03-25T10:00:16.882Z,27.30
2018-03-25T10:02:50.255Z,23.63
2018-03-25T10:05:17.763Z,26.80
2018-03-25T10:07:45.244Z,29.33
2018-03-25T10:10:13.144Z,28.00
2018-03-25T10:12:40.639Z,27.87
2018-03-25T10:15:08.136Z,27.10
2018-03-25T10:17:35.655Z,27.00
2018-03-25T10:20:03.179Z,28.13
2018-03-25T10:22:30.696Z,28.23
2018-03-25T10:24:58.621Z,29.77
2018-03-25T10:27:26.107Z,28.47
2018-03-25T10:29:53.999Z,28.20
2018-03-25T10:32:21.509Z,28.90
2018-03-25T10:34:49.020Z,24.30
2018-03-25T10:37:16.866Z,27.30
2018-03-25T10:39:44.397Z,26.97
2018-03-25T10:42:11.908Z,27.97
2018-03-25T10:44:39.407Z,28.50
2018-03-25T10:47:06.911Z,28.50
2018-03-25T10:49:34.418Z,27.80
2018-03-25T10:52:01.939Z,22.77
2018-03-25T10:54:29.449Z,27.43
2018-03-25T10:56:57.347Z,27.63
2018-03-25T10:59:24.881Z,27.83
2018-03-25T11:04:43.674Z,26.80
2018-03-25T11:07:11.175Z,28.53
2018-03-25T11:09:38.713Z,26.47
2018-03-25T11:12:06.232Z,27.40
2018-03-25T11:14:34.123Z,26.53
2018-03-25T11:17:01.700Z,26.83
2018-03-25T11:19:29.152Z,27.53
2018-03-25T11:21:56.652Z,28.07
2018-03-25T11:24:24.164Z,26.80
2018-03-25T11:26:51.668Z,26.93
2018-03-25T11:29:19.176Z,26.07
2018-03-25T11:31:46.692Z,26.93
2018-03-25T11:34:14.599Z,26.80
2018-03-25T11:36:42.128Z,27.50
2018-03-25T11:39:09.654Z,26.77
2018-03-25T11:41:37.394Z,28.93
2018-03-25T11:44:04.891Z,26.83
2018-03-25T11:46:32.394Z,25.23
2018-03-25T11:48:59.904Z,26.13
2018-03-25T11:51:27.421Z,26.73
2018-03-25T11:53:54.927Z,27.67
2018-03-25T11:56:22.819Z,26.57
2018-03-25T11:58:50.335Z,25.27
2018-03-25T12:01:17.858Z,24.50
2018-03-25T12:03:45.347Z,23.10
2018-03-25T12:06:12.847Z,24.30
2018-03-25T12:08:40.342Z,26.80
2018-03-25T12:11:07.845Z,25.40
2018-03-25T12:13:35.774Z,26.10
2018-03-25T12:16:03.805Z,26.37
2018-03-25T12:18:31.304Z,24.37
2018-03-25T12:20:58.811Z,24.80
2018-03-25T12:23:26.347Z,23.20
2018-03-25T12:25:54.235Z,23.53
2018-03-25T12:28:23.155Z,20.67
2018-03-25T12:30:50.649Z,21.23
2018-03-25T12:33:18.204Z,24.17
2018-03-25T12:35:45.699Z,22.03
2018-03-25T12:38:13.191Z,27.10
2018-03-25T12:40:40.695Z,23.77
2018-03-25T12:43:08.591Z,22.73
2018-03-25T12:45:36.088Z,22.50
2018-03-25T12:48:03.604Z,21.83
2018-03-25T12:50:31.099Z,21.47
2018-03-25T12:52:58.602Z,21.00
2018-03-25T12:55:26.486Z,20.97
2018-03-25T12:57:53.992Z,18.57
2018-03-25T13:00:21.520Z,18.60
2018-03-25T13:02:49.027Z,20.73
2018-03-25T13:05:17.007Z,19.67
2018-03-25T13:07:45.043Z,19.27
2018-03-25T13:10:12.619Z,19.87
2018-03-25T13:12:40.575Z,20.43
2018-03-25T13:15:08.153Z,19.80
2018-03-25T13:17:36.036Z,21.33
2018-03-25T13:20:03.604Z,18.43
2018-03-25T13:22:31.131Z,18.97
2018-03-25T13:24:59.094Z,18.00
2018-03-25T13:27:26.674Z,20.57
2018-03-25T13:29:54.596Z,19.43
2018-03-25T13:32:22.117Z,19.90
2018-03-25T13:34:49.658Z,20.37
2018-03-25T13:37:17.567Z,19.80
2018-03-25T13:39:45.157Z,18.10
2018-03-25T13:42:12.912Z,19.00
2018-03-25T13:44:40.420Z,20.23
2018-03-25T13:47:08.084Z,18.83
2018-03-25T13:49:35.587Z,19.97
2018-03-25T13:52:03.104Z,19.10
2018-03-25T13:54:30.624Z,19.53
2018-03-25T13:56:58.633Z,19.47
2018-03-25T13:59:26.135Z,19.70
2018-03-25T14:01:53.623Z,19.63
2018-03-25T14:04:21.135Z,21.53
2018-03-25T14:06:48.640Z,21.27
2018-03-25T14:09:16.139Z,21.27
2018-03-25T14:11:43.673Z,20.83
2018-03-25T14:14:11.186Z,22.80
2018-03-25T14:16:39.147Z,20.80
2018-03-25T14:19:06.667Z,20.80
2018-03-25T14:21:34.176Z,22.23
2018-03-25T14:24:02.088Z,21.00
2018-03-25T14:26:29.641Z,22.50
2018-03-25T14:28:57.359Z,21.70
2018-03-25T14:31:25.278Z,23.47
2018-03-25T14:33:52.948Z,22.03
2018-03-25T14:36:20.907Z,25.40
2018-03-25T14:38:48.395Z,24.77
2018-03-25T14:41:15.928Z,23.90
2018-03-25T14:43:43.599Z,23.47
2018-03-25T14:46:11.094Z,23.90
2018-03-25T14:48:38.988Z,20.70
2018-03-25T14:51:06.484Z,23.83
2018-03-25T14:53:33.991Z,23.67
2018-03-25T14:56:01.881Z,24.23
2018-03-25T14:58:29.371Z,24.33
2018-03-25T15:00:56.894Z,24.00
2018-03-25T15:03:24.401Z,24.40
2018-03-25T15:05:51.894Z,23.10
2018-03-25T15:08:19.403Z,22.17
2018-03-25T15:10:46.909Z,22.73
2018-03-25T15:13:14.399Z,21.73
2018-03-25T15:15:41.904Z,20.93
2018-03-25T15:18:09.814Z,21.97
2018-03-25T15:20:37.311Z,21.07
2018-03-25T15:23:04.814Z,21.47
2018-03-25T15:25:32.304Z,21.13
2018-03-25T15:27:59.797Z,23.67
2018-03-25T15:30:27.691Z,23.10
2018-03-25T15:32:56.036Z,27.17
2018-03-25T15:35:23.554Z,26.37
2018-03-25T15:37:51.052Z,22.87
2018-03-25T15:40:18.952Z,21.93
2018-03-25T15:42:46.450Z,21.93
2018-03-25T15:45:13.957Z,22.23
2018-03-25T15:47:41.497Z,22.57
2018-03-25T15:50:09.399Z,21.97
2018-03-25T15:52:36.887Z,22.60
2018-03-25T15:55:04.395Z,21.63
2018-03-25T15:57:31.889Z,22.37
2018-03-25T15:59:59.383Z,22.43
2018-03-25T16:02:26.921Z,21.83
2018-03-25T16:04:54.418Z,20.77
2018-03-25T16:07:22.308Z,21.07
2018-03-25T16:09:49.891Z,21.57
2018-03-25T16:12:18.433Z,22.37
2018-03-25T16:14:45.927Z,22.13
2018-03-25T16:17:13.427Z,22.23
2018-03-25T16:19:40.931Z,23.33
2018-03-25T16:22:08.445Z,22.47
2018-03-25T16:27:10.575Z,22.87
2018-03-25T16:29:38.079Z,23.37
2018-03-25T16:32:05.984Z,22.77
2018-03-25T16:34:33.493Z,22.33
2018-03-25T16:37:01.012Z,21.10
2018-03-25T16:39:28.519Z,22.00
2018-03-25T16:41:56.412Z,22.93
2018-03-25T16:44:23.919Z,21.40
2018-03-25T16:46:51.426Z,22.90
2018-03-25T16:49:18.932Z,22.80
2018-03-25T16:51:46.472Z,21.97
2018-03-25T16:54:13.967Z,21.43
2018-03-25T16:56:41.483Z,22.37
2018-03-25T16:59:08.992Z,22.10
2018-03-25T17:01:36.499Z,22.87
2018-03-25T17:04:03.983Z,22.30
2018-03-25T17:06:31.531Z,21.83
2018-03-25T17:08:59.020Z,21.87
2018-03-25T17:11:26.906Z,21.30
2018-03-25T17:13:54.411Z,22.40
2018-03-25T17:16:21.923Z,20.43
2018-03-25T17:18:49.436Z,21.10
2018-03-25T17:21:16.970Z,20.37
2018-03-25T17:23:44.464Z,21.20
2018-03-25T17:26:11.957Z,20.43
2018-03-25T17:28:39.455Z,22.50
2018-03-25T17:31:06.953Z,20.43
2018-03-25T17:33:34.849Z,20.90
2018-03-25T17:36:02.369Z,21.53
2018-03-25T17:38:30.268Z,22.37
2018-03-25T17:40:57.951Z,21.27
2018-03-25T17:43:25.612Z,403.70
2018-03-25T17:45:53.239Z,562.53
2018-03-25T17:48:20.762Z,567.47
2018-03-25T17:50:48.267Z,128.47
2018-03-25T17:53:15.793Z,33.73
2018-03-25T17:55:43.805Z,26.20
2018-03-25T17:58:11.302Z,28.93
2018-03-25T18:00:39.491Z,24.90
2018-03-25T18:03:07.479Z,27.23
2018-03-25T18:05:35.072Z,25.47
2018-03-25T18:08:02.693Z,23.10
2018-03-25T18:10:30.196Z,22.30
2018-03-25T18:12:57.762Z,25.97
2018-03-25T18:15:25.381Z,24.13
2018-03-25T18:17:52.883Z,26.57
2018-03-25T18:20:20.384Z,25.00
2018-03-25T18:22:48.307Z,24.13
2018-03-25T18:25:15.807Z,28.47
2018-03-25T18:27:43.393Z,28.00
2018-03-25T18:30:12.019Z,24.87
2018-03-25T18:32:39.523Z,25.10
2018-03-25T18:35:07.076Z,25.50
2018-03-25T18:37:34.574Z,24.93
2018-03-25T18:40:02.205Z,26.37
2018-03-25T18:42:29.727Z,24.80
2018-03-25T18:44:57.249Z,24.27
2018-03-25T18:47:24.871Z,24.73
2018-03-25T18:49:52.648Z,24.93
2018-03-25T18:52:20.297Z,26.87
2018-03-25T18:54:47.791Z,28.27
2018-03-25T18:57:15.581Z,26.40
2018-03-25T18:59:43.728Z,24.50
2018-03-25T19:02:11.293Z,26.43
2018-03-25T19:04:38.972Z,27.30
2018-03-25T19:07:06.875Z,26.00
2018-03-25T19:09:34.375Z,26.10
2018-03-25T19:12:01.875Z,27.97
2018-03-25T19:14:29.772Z,26.83
2018-03-25T19:16:57.674Z,25.63
2018-03-25T19:19:25.195Z,26.17
2018-03-25T19:21:52.688Z,27.53
2018-03-25T19:24:20.191Z,26.30
2018-03-25T19:26:47.723Z,26.60
2018-03-25T19:29:15.612Z,28.13
2018-03-25T19:31:44.039Z,27.20
2018-03-25T19:34:11.545Z,25.90
2018-03-25T19:36:39.091Z,27.33
2018-03-25T19:39:06.981Z,24.90
2018-03-25T19:41:34.491Z,23.83
2018-03-25T19:44:01.987Z,23.73
2018-03-25T19:46:29.504Z,25.67
2018-03-25T19:48:57.011Z,24.87
2018-03-25T19:51:24.495Z,27.30
2018-03-25T19:53:52.012Z,26.73
2018-03-25T19:56:19.507Z,25.70
2018-03-25T19:58:46.991Z,29.03
2018-03-25T20:01:14.491Z,26.97
2018-03-25T20:03:42.078Z,26.40
2018-03-25T20:06:09.957Z,28.67
2018-03-25T20:08:37.447Z,28.77
2018-03-25T20:11:05.331Z,29.00
2018-03-25T20:13:32.853Z,28.70
2018-03-25T20:16:00.368Z,29.10
2018-03-25T20:18:27.868Z,28.37
2018-03-25T20:20:55.371Z,27.27
2018-03-25T20:23:22.864Z,27.00
2018-03-25T20:25:50.367Z,27.77
2018-03-25T20:28:18.272Z,27.80
2018-03-25T20:30:45.771Z,28.30
2018-03-25T20:33:13.267Z,28.30
2018-03-25T20:35:40.762Z,28.80
2018-03-25T20:38:08.327Z,28.77
2018-03-25T20:40:35.822Z,29.23
2018-03-25T20:43:03.716Z,29.33
2018-03-25T20:45:31.204Z,28.23
2018-03-25T20:47:58.704Z,27.50
2018-03-25T20:50:26.591Z,29.83
2018-03-25T20:52:54.100Z,28.70
2018-03-25T20:55:21.595Z,28.20
2018-03-25T20:57:49.107Z,27.73
2018-03-25T21:00:17.031Z,26.63
2018-03-25T21:02:44.567Z,28.20
2018-03-25T21:05:12.489Z,28.57
2018-03-25T21:07:40.149Z,27.97
2018-03-25T21:10:07.823Z,27.83
2018-03-25T21:12:35.327Z,27.87
2018-03-25T21:15:02.928Z,29.30
2018-03-25T21:17:30.512Z,29.27
2018-03-25T21:19:58.132Z,28.50
2018-03-25T21:22:26.304Z,28.07
2018-03-25T21:24:53.911Z,29.80
2018-03-25T21:27:21.839Z,29.13
2018-03-25T21:29:49.569Z,29.03
2018-03-25T21:32:17.083Z,28.13
2018-03-25T21:34:44.756Z,28.93
2018-03-25T21:37:12.352Z,27.37
2018-03-25T21:39:39.847Z,29.63
2018-03-25T21:42:07.359Z,27.97
2018-03-25T21:44:34.963Z,29.20
2018-03-25T21:47:02.459Z,27.80
2018-03-25T21:49:30.491Z,27.50
2018-03-25T21:51:58.093Z,28.43
2018-03-25T21:54:25.758Z,27.53
2018-03-25T21:56:53.338Z,29.70
2018-03-25T21:59:21.004Z,29.77
2018-03-25T22:01:48.600Z,28.13
2018-03-25T22:04:16.159Z,28.70
2018-03-25T22:06:43.668Z,28.87
2018-03-25T22:09:11.171Z,29.87
2018-03-25T22:11:38.674Z,29.27
2018-03-25T22:14:06.188Z,29.47
2018-03-25T22:16:33.689Z,28.83
2018-03-25T22:19:01.209Z,29.60
2018-03-25T22:21:28.702Z,29.77
2018-03-25T22:23:56.608Z,29.90
2018-03-25T22:26:24.108Z,29.87
2018-03-25T22:28:51.601Z,29.00
2018-03-25T22:31:19.113Z,29.67
2018-03-25T22:33:46.603Z,29.37
2018-03-25T22:36:14.107Z,29.60
2018-03-25T22:38:41.654Z,28.30
2018-03-25T22:41:09.135Z,29.73
2018-03-25T22:43:36.642Z,27.53
2018-03-25T22:46:04.165Z,28.40
2018-03-25T22:48:31.751Z,30.57
2018-03-25T22:50:59.267Z,30.60
2018-03-25T22:53:26.771Z,29.30
2018-03-25T22:55:54.278Z,28.90
2018-03-25T22:58:21.792Z,29.50
2018-03-25T23:00:49.296Z,31.17
2018-03-25T23:03:16.815Z,29.80
2018-03-25T23:05:44.311Z,29.37
2018-03-25T23:08:11.824Z,29.37
2018-03-25T23:10:39.339Z,29.17
2018-03-25T23:13:06.827Z,28.87
2018-03-25T23:15:34.343Z,28.67
2018-03-25T23:18:01.859Z,28.90
2018-03-25T23:20:29.362Z,27.80
2018-03-25T23:22:56.882Z,28.60
2018-03-25T23:25:24.378Z,25.67
2018-03-25T23:27:51.895Z,26.00
2018-03-25T23:30:19.399Z,27.27
2018-03-25T23:32:46.899Z,28.63
2018-03-25T23:35:14.394Z,28.53
2018-03-25T23:37:41.891Z,27.23
2018-03-25T23:40:09.394Z,28.30
2018-03-25T23:42:36.910Z,28.17
2018-03-25T23:45:04.439Z,27.47
2018-03-25T23:47:31.950Z,29.07
2018-03-25T23:49:59.487Z,28.40
2018-03-25T23:52:26.988Z,28.70
2018-03-25T23:54:54.495Z,29.77
2018-03-25T23:57:22.003Z,29.80
2018-03-25T23:59:49.533Z,29.80
